TAF MNMG
MNMG 090308Z 0906/1006 13006KT 9999 FEW022 BECMG 0913/0919 08010KT FEW023 TEMPO 0920/0923 08016G26KT PORB30 TEMPO 0918/0923 8000 DZ SCT022 SCT300=
METAR MNMG
MNMG 090800Z 11004KT 9999 FEW025 SCT080 24/21 Q1011 A2986 NOSIG=
MNMG 090700Z 12006KT 9999 FEW025 24/21 Q1011 A2988 NOSIG=
MNMG 090600Z 11006KT 9999 FEW022 25/22 Q1012 A2991 NOSIG=
MNMG 090500Z 13006KT 9999 FEW022 25/22 Q1012 A2991 NOSIG=
MNMG 090400Z 10004KT 9999 FEW022 26/22 Q1012 A2991 NOSIG=
WC MNMG
WS MNMG
WV MNMG